sensor_id;sensor_type;location;lat;lon;timestamp;P1;durP1;ratioP1;P2;durP2;ratioP2
51792;SDS011;37850;53.178;6.376;2023-09-19T00:01:07;15.18;;;2.10;;
51792;SDS011;37850;53.178;6.376;2023-09-19T00:03:34;11.80;;;2.28;;
51792;SDS011;37850;53.178;6.376;2023-09-19T00:06:02;9.65;;;1.77;;
51792;SDS011;37850;53.178;6.376;2023-09-19T00:08:30;12.65;;;2.47;;
51792;SDS011;37850;53.178;6.376;2023-09-19T00:10:56;10.90;;;2.00;;
51792;SDS011;37850;53.178;6.376;2023-09-19T00:13:30;10.50;;;1.80;;
51792;SDS011;37850;53.178;6.376;2023-09-19T00:16:01;9.93;;;1.88;;
51792;SDS011;37850;53.178;6.376;2023-09-19T00:18:33;11.95;;;1.92;;
51792;SDS011;37850;53.178;6.376;2023-09-19T00:20:59;12.23;;;1.73;;
51792;SDS011;37850;53.178;6.376;2023-09-19T00:23:25;8.93;;;1.60;;
51792;SDS011;37850;53.178;6.376;2023-09-19T00:25:52;11.98;;;2.17;;
51792;SDS011;37850;53.178;6.376;2023-09-19T00:28:22;8.30;;;2.00;;
51792;SDS011;37850;53.178;6.376;2023-09-19T00:30:48;6.82;;;1.52;;
51792;SDS011;37850;53.178;6.376;2023-09-19T00:33:20;13.05;;;2.63;;
51792;SDS011;37850;53.178;6.376;2023-09-19T00:35:53;12.38;;;2.20;;
51792;SDS011;37850;53.178;6.376;2023-09-19T00:38:20;8.38;;;1.73;;
51792;SDS011;37850;53.178;6.376;2023-09-19T00:40:48;12.38;;;1.98;;
51792;SDS011;37850;53.178;6.376;2023-09-19T00:43:15;10.52;;;2.08;;
51792;SDS011;37850;53.178;6.376;2023-09-19T00:45:42;9.60;;;1.95;;
51792;SDS011;37850;53.178;6.376;2023-09-19T00:48:10;12.02;;;2.03;;
51792;SDS011;37850;53.178;6.376;2023-09-19T00:50:37;11.48;;;2.00;;
51792;SDS011;37850;53.178;6.376;2023-09-19T00:53:07;10.18;;;1.70;;
51792;SDS011;37850;53.178;6.376;2023-09-19T00:58:04;10.45;;;2.15;;
51792;SDS011;37850;53.178;6.376;2023-09-19T01:00:31;15.45;;;2.55;;
51792;SDS011;37850;53.178;6.376;2023-09-19T01:02:59;10.02;;;2.65;;
51792;SDS011;37850;53.178;6.376;2023-09-19T01:05:28;14.65;;;2.30;;
51792;SDS011;37850;53.178;6.376;2023-09-19T01:07:57;11.88;;;2.15;;
51792;SDS011;37850;53.178;6.376;2023-09-19T01:10:23;10.77;;;2.15;;
51792;SDS011;37850;53.178;6.376;2023-09-19T01:15:49;6.35;;;1.42;;
51792;SDS011;37850;53.178;6.376;2023-09-19T01:18:47;12.35;;;2.33;;
51792;SDS011;37850;53.178;6.376;2023-09-19T01:29:44;13.47;;;2.20;;
51792;SDS011;37850;53.178;6.376;2023-09-19T01:32:13;12.75;;;2.50;;
51792;SDS011;37850;53.178;6.376;2023-09-19T01:34:51;11.60;;;2.00;;
51792;SDS011;37850;53.178;6.376;2023-09-19T01:37:29;10.68;;;2.10;;
51792;SDS011;37850;53.178;6.376;2023-09-19T01:39:57;10.15;;;2.00;;
51792;SDS011;37850;53.178;6.376;2023-09-19T01:48:25;10.20;;;2.63;;
51792;SDS011;37850;53.178;6.376;2023-09-19T01:51:05;11.57;;;2.03;;
51792;SDS011;37850;53.178;6.376;2023-09-19T01:56:38;9.57;;;1.85;;
51792;SDS011;37850;53.178;6.376;2023-09-19T01:59:18;12.68;;;2.50;;
51792;SDS011;37850;53.178;6.376;2023-09-19T02:01:48;12.27;;;2.40;;
51792;SDS011;37850;53.178;6.376;2023-09-19T02:04:17;6.63;;;1.48;;
51792;SDS011;37850;53.178;6.376;2023-09-19T02:06:43;8.68;;;1.80;;
51792;SDS011;37850;53.178;6.376;2023-09-19T02:09:08;13.65;;;1.88;;
51792;SDS011;37850;53.178;6.376;2023-09-19T02:11:34;9.57;;;1.70;;
51792;SDS011;37850;53.178;6.376;2023-09-19T02:14:01;8.02;;;1.75;;
51792;SDS011;37850;53.178;6.376;2023-09-19T02:16:27;14.18;;;2.20;;
51792;SDS011;37850;53.178;6.376;2023-09-19T02:18:54;9.90;;;1.90;;
51792;SDS011;37850;53.178;6.376;2023-09-19T02:21:19;13.00;;;1.98;;
51792;SDS011;37850;53.178;6.376;2023-09-19T02:23:46;14.25;;;2.25;;
51792;SDS011;37850;53.178;6.376;2023-09-19T02:26:13;11.63;;;2.55;;
51792;SDS011;37850;53.178;6.376;2023-09-19T02:28:39;13.43;;;2.22;;
51792;SDS011;37850;53.178;6.376;2023-09-19T02:31:05;10.93;;;1.98;;
51792;SDS011;37850;53.178;6.376;2023-09-19T02:33:30;7.65;;;2.05;;
51792;SDS011;37850;53.178;6.376;2023-09-19T02:35:57;9.70;;;1.92;;
51792;SDS011;37850;53.178;6.376;2023-09-19T02:38:27;7.32;;;1.70;;
51792;SDS011;37850;53.178;6.376;2023-09-19T02:40:54;8.88;;;1.77;;
51792;SDS011;37850;53.178;6.376;2023-09-19T02:43:20;11.07;;;1.90;;
51792;SDS011;37850;53.178;6.376;2023-09-19T02:45:47;12.93;;;2.42;;
51792;SDS011;37850;53.178;6.376;2023-09-19T02:48:15;13.02;;;2.00;;
51792;SDS011;37850;53.178;6.376;2023-09-19T02:50:44;11.30;;;2.13;;
51792;SDS011;37850;53.178;6.376;2023-09-19T02:53:11;8.65;;;1.73;;
51792;SDS011;37850;53.178;6.376;2023-09-19T02:55:38;12.93;;;1.75;;
51792;SDS011;37850;53.178;6.376;2023-09-19T02:58:05;11.52;;;2.03;;
51792;SDS011;37850;53.178;6.376;2023-09-19T03:00:40;9.38;;;1.73;;
51792;SDS011;37850;53.178;6.376;2023-09-19T03:03:10;11.40;;;2.20;;
51792;SDS011;37850;53.178;6.376;2023-09-19T03:05:36;12.55;;;2.30;;
51792;SDS011;37850;53.178;6.376;2023-09-19T03:08:03;10.07;;;1.95;;
51792;SDS011;37850;53.178;6.376;2023-09-19T03:10:29;13.38;;;2.60;;
51792;SDS011;37850;53.178;6.376;2023-09-19T03:12:56;11.38;;;1.73;;
51792;SDS011;37850;53.178;6.376;2023-09-19T03:15:23;15.02;;;2.25;;
51792;SDS011;37850;53.178;6.376;2023-09-19T03:17:49;16.48;;;1.98;;
51792;SDS011;37850;53.178;6.376;2023-09-19T03:20:15;11.13;;;2.10;;
51792;SDS011;37850;53.178;6.376;2023-09-19T03:22:44;9.00;;;1.60;;
51792;SDS011;37850;53.178;6.376;2023-09-19T03:25:10;8.48;;;1.80;;
51792;SDS011;37850;53.178;6.376;2023-09-19T03:27:39;15.45;;;2.20;;
51792;SDS011;37850;53.178;6.376;2023-09-19T03:30:05;8.90;;;1.77;;
51792;SDS011;37850;53.178;6.376;2023-09-19T03:32:37;11.63;;;1.70;;
51792;SDS011;37850;53.178;6.376;2023-09-19T03:35:08;11.90;;;1.55;;
51792;SDS011;37850;53.178;6.376;2023-09-19T03:37:34;10.00;;;1.73;;
51792;SDS011;37850;53.178;6.376;2023-09-19T03:40:00;10.25;;;1.60;;
51792;SDS011;37850;53.178;6.376;2023-09-19T03:42:30;9.85;;;1.83;;
51792;SDS011;37850;53.178;6.376;2023-09-19T03:44:56;12.20;;;1.83;;
51792;SDS011;37850;53.178;6.376;2023-09-19T03:47:22;7.63;;;1.50;;
51792;SDS011;37850;53.178;6.376;2023-09-19T03:49:47;13.23;;;2.20;;
51792;SDS011;37850;53.178;6.376;2023-09-19T03:52:13;13.00;;;1.92;;
51792;SDS011;37850;53.178;6.376;2023-09-19T03:54:41;13.73;;;2.05;;
51792;SDS011;37850;53.178;6.376;2023-09-19T03:57:07;9.35;;;1.77;;
51792;SDS011;37850;53.178;6.376;2023-09-19T03:59:33;11.45;;;1.90;;
51792;SDS011;37850;53.178;6.376;2023-09-19T04:02:00;9.70;;;2.00;;
51792;SDS011;37850;53.178;6.376;2023-09-19T04:04:27;9.23;;;1.70;;
51792;SDS011;37850;53.178;6.376;2023-09-19T04:06:54;10.88;;;1.95;;
51792;SDS011;37850;53.178;6.376;2023-09-19T04:09:20;10.35;;;2.20;;
51792;SDS011;37850;53.178;6.376;2023-09-19T04:11:45;10.05;;;1.85;;
51792;SDS011;37850;53.178;6.376;2023-09-19T04:14:11;10.32;;;2.03;;
51792;SDS011;37850;53.178;6.376;2023-09-19T04:16:37;9.90;;;1.83;;
51792;SDS011;37850;53.178;6.376;2023-09-19T04:19:04;11.90;;;2.50;;
51792;SDS011;37850;53.178;6.376;2023-09-19T04:21:30;9.63;;;1.80;;
51792;SDS011;37850;53.178;6.376;2023-09-19T04:23:57;9.02;;;1.67;;
51792;SDS011;37850;53.178;6.376;2023-09-19T04:26:22;8.80;;;1.83;;
51792;SDS011;37850;53.178;6.376;2023-09-19T04:28:48;14.60;;;2.65;;
51792;SDS011;37850;53.178;6.376;2023-09-19T04:31:14;9.18;;;1.70;;
51792;SDS011;37850;53.178;6.376;2023-09-19T04:33:40;12.85;;;2.05;;
51792;SDS011;37850;53.178;6.376;2023-09-19T04:36:06;10.15;;;1.95;;
51792;SDS011;37850;53.178;6.376;2023-09-19T04:38:32;11.20;;;2.05;;
51792;SDS011;37850;53.178;6.376;2023-09-19T04:40:58;13.80;;;1.88;;
51792;SDS011;37850;53.178;6.376;2023-09-19T04:43:26;11.90;;;1.98;;
51792;SDS011;37850;53.178;6.376;2023-09-19T04:45:52;9.25;;;2.03;;
51792;SDS011;37850;53.178;6.376;2023-09-19T04:48:21;12.25;;;2.00;;
51792;SDS011;37850;53.178;6.376;2023-09-19T04:50:51;10.25;;;1.85;;
51792;SDS011;37850;53.178;6.376;2023-09-19T04:53:17;9.23;;;1.75;;
51792;SDS011;37850;53.178;6.376;2023-09-19T04:55:45;11.90;;;1.95;;
51792;SDS011;37850;53.178;6.376;2023-09-19T04:58:14;14.75;;;2.47;;
51792;SDS011;37850;53.178;6.376;2023-09-19T05:00:40;11.57;;;2.00;;
51792;SDS011;37850;53.178;6.376;2023-09-19T05:03:06;12.02;;;2.03;;
51792;SDS011;37850;53.178;6.376;2023-09-19T05:05:33;13.00;;;2.00;;
51792;SDS011;37850;53.178;6.376;2023-09-19T05:08:00;14.32;;;2.30;;
51792;SDS011;37850;53.178;6.376;2023-09-19T05:10:25;10.52;;;1.85;;
51792;SDS011;37850;53.178;6.376;2023-09-19T05:12:54;12.02;;;1.80;;
51792;SDS011;37850;53.178;6.376;2023-09-19T05:15:20;16.17;;;2.30;;
51792;SDS011;37850;53.178;6.376;2023-09-19T05:17:49;8.60;;;1.83;;
51792;SDS011;37850;53.178;6.376;2023-09-19T05:20:17;12.90;;;2.10;;
51792;SDS011;37850;53.178;6.376;2023-09-19T05:23:03;11.80;;;1.92;;
51792;SDS011;37850;53.178;6.376;2023-09-19T05:25:36;8.55;;;1.75;;
51792;SDS011;37850;53.178;6.376;2023-09-19T05:28:05;11.60;;;1.88;;
51792;SDS011;37850;53.178;6.376;2023-09-19T05:30:35;10.68;;;1.92;;
51792;SDS011;37850;53.178;6.376;2023-09-19T05:33:03;10.05;;;1.80;;
51792;SDS011;37850;53.178;6.376;2023-09-19T05:35:30;10.13;;;2.03;;
51792;SDS011;37850;53.178;6.376;2023-09-19T05:37:57;12.95;;;1.98;;
51792;SDS011;37850;53.178;6.376;2023-09-19T05:40:23;9.38;;;1.63;;
51792;SDS011;37850;53.178;6.376;2023-09-19T05:42:49;13.07;;;2.08;;
51792;SDS011;37850;53.178;6.376;2023-09-19T05:45:16;12.18;;;2.03;;
51792;SDS011;37850;53.178;6.376;2023-09-19T05:47:50;13.38;;;2.15;;
51792;SDS011;37850;53.178;6.376;2023-09-19T05:50:21;11.00;;;1.90;;
51792;SDS011;37850;53.178;6.376;2023-09-19T05:52:51;8.50;;;1.92;;
51792;SDS011;37850;53.178;6.376;2023-09-19T05:55:18;12.70;;;2.67;;
51792;SDS011;37850;53.178;6.376;2023-09-19T05:57:48;9.55;;;2.08;;
51792;SDS011;37850;53.178;6.376;2023-09-19T06:00:16;10.60;;;2.20;;
51792;SDS011;37850;53.178;6.376;2023-09-19T06:02:43;13.10;;;2.58;;
51792;SDS011;37850;53.178;6.376;2023-09-19T06:05:10;12.75;;;2.15;;
51792;SDS011;37850;53.178;6.376;2023-09-19T06:07:38;13.15;;;2.60;;
51792;SDS011;37850;53.178;6.376;2023-09-19T06:10:04;11.88;;;1.70;;
51792;SDS011;37850;53.178;6.376;2023-09-19T06:12:31;12.15;;;2.35;;
51792;SDS011;37850;53.178;6.376;2023-09-19T06:14:59;10.20;;;2.15;;
51792;SDS011;37850;53.178;6.376;2023-09-19T06:17:25;13.82;;;2.00;;
51792;SDS011;37850;53.178;6.376;2023-09-19T06:19:52;10.38;;;2.45;;
51792;SDS011;37850;53.178;6.376;2023-09-19T06:22:18;15.43;;;2.70;;
51792;SDS011;37850;53.178;6.376;2023-09-19T06:24:44;15.65;;;2.53;;
51792;SDS011;37850;53.178;6.376;2023-09-19T06:27:12;11.00;;;2.45;;
51792;SDS011;37850;53.178;6.376;2023-09-19T06:29:38;14.55;;;2.30;;
51792;SDS011;37850;53.178;6.376;2023-09-19T06:32:07;9.45;;;2.10;;
51792;SDS011;37850;53.178;6.376;2023-09-19T06:34:34;15.60;;;2.67;;
51792;SDS011;37850;53.178;6.376;2023-09-19T06:37:00;15.35;;;2.25;;
51792;SDS011;37850;53.178;6.376;2023-09-19T06:39:25;11.30;;;2.00;;
51792;SDS011;37850;53.178;6.376;2023-09-19T06:41:52;10.45;;;2.17;;
51792;SDS011;37850;53.178;6.376;2023-09-19T06:44:20;14.98;;;2.40;;
51792;SDS011;37850;53.178;6.376;2023-09-19T06:46:49;12.40;;;2.17;;
51792;SDS011;37850;53.178;6.376;2023-09-19T06:49:17;13.77;;;2.58;;
51792;SDS011;37850;53.178;6.376;2023-09-19T06:51:43;15.15;;;2.08;;
51792;SDS011;37850;53.178;6.376;2023-09-19T06:54:09;12.07;;;2.40;;
51792;SDS011;37850;53.178;6.376;2023-09-19T06:56:35;15.82;;;2.47;;
51792;SDS011;37850;53.178;6.376;2023-09-19T06:59:01;9.05;;;1.90;;
51792;SDS011;37850;53.178;6.376;2023-09-19T07:01:28;12.65;;;2.47;;
51792;SDS011;37850;53.178;6.376;2023-09-19T07:03:54;14.73;;;2.50;;
51792;SDS011;37850;53.178;6.376;2023-09-19T07:06:20;18.25;;;2.67;;
51792;SDS011;37850;53.178;6.376;2023-09-19T07:08:46;16.45;;;2.38;;
51792;SDS011;37850;53.178;6.376;2023-09-19T07:11:11;9.32;;;1.88;;
51792;SDS011;37850;53.178;6.376;2023-09-19T07:13:38;9.95;;;2.15;;
51792;SDS011;37850;53.178;6.376;2023-09-19T07:16:04;13.80;;;2.35;;
51792;SDS011;37850;53.178;6.376;2023-09-19T07:18:30;11.57;;;2.40;;
51792;SDS011;37850;53.178;6.376;2023-09-19T07:20:59;11.20;;;2.30;;
51792;SDS011;37850;53.178;6.376;2023-09-19T07:23:30;14.13;;;2.40;;
51792;SDS011;37850;53.178;6.376;2023-09-19T07:26:00;12.25;;;2.30;;
51792;SDS011;37850;53.178;6.376;2023-09-19T07:28:27;14.05;;;2.88;;
51792;SDS011;37850;53.178;6.376;2023-09-19T07:30:53;9.18;;;1.95;;
51792;SDS011;37850;53.178;6.376;2023-09-19T07:33:19;13.73;;;2.45;;
51792;SDS011;37850;53.178;6.376;2023-09-19T07:35:46;10.45;;;2.47;;
51792;SDS011;37850;53.178;6.376;2023-09-19T07:38:12;9.35;;;1.80;;
51792;SDS011;37850;53.178;6.376;2023-09-19T07:40:38;12.07;;;2.13;;
51792;SDS011;37850;53.178;6.376;2023-09-19T07:43:04;16.58;;;2.53;;
51792;SDS011;37850;53.178;6.376;2023-09-19T07:45:31;9.80;;;2.03;;
51792;SDS011;37850;53.178;6.376;2023-09-19T07:47:57;12.23;;;2.30;;
51792;SDS011;37850;53.178;6.376;2023-09-19T07:50:23;11.18;;;2.03;;
51792;SDS011;37850;53.178;6.376;2023-09-19T07:52:51;14.85;;;1.85;;
51792;SDS011;37850;53.178;6.376;2023-09-19T07:55:18;11.77;;;2.30;;
51792;SDS011;37850;53.178;6.376;2023-09-19T07:57:48;10.65;;;2.45;;
51792;SDS011;37850;53.178;6.376;2023-09-19T08:00:14;13.38;;;2.38;;
51792;SDS011;37850;53.178;6.376;2023-09-19T08:02:40;11.98;;;2.47;;
51792;SDS011;37850;53.178;6.376;2023-09-19T08:05:07;15.52;;;2.38;;
51792;SDS011;37850;53.178;6.376;2023-09-19T08:07:41;13.38;;;2.45;;
51792;SDS011;37850;53.178;6.376;2023-09-19T08:10:09;14.63;;;2.22;;
51792;SDS011;37850;53.178;6.376;2023-09-19T08:12:44;11.55;;;2.38;;
51792;SDS011;37850;53.178;6.376;2023-09-19T08:17:39;9.88;;;2.05;;
51792;SDS011;37850;53.178;6.376;2023-09-19T08:20:06;13.20;;;2.50;;
51792;SDS011;37850;53.178;6.376;2023-09-19T08:22:33;14.82;;;2.75;;
51792;SDS011;37850;53.178;6.376;2023-09-19T08:24:59;11.98;;;2.30;;
51792;SDS011;37850;53.178;6.376;2023-09-19T08:27:26;11.77;;;2.58;;
51792;SDS011;37850;53.178;6.376;2023-09-19T08:29:53;8.73;;;2.28;;
51792;SDS011;37850;53.178;6.376;2023-09-19T08:32:18;15.65;;;3.25;;
51792;SDS011;37850;53.178;6.376;2023-09-19T08:34:49;11.77;;;2.42;;
51792;SDS011;37850;53.178;6.376;2023-09-19T08:37:15;12.27;;;2.58;;
51792;SDS011;37850;53.178;6.376;2023-09-19T08:39:43;10.15;;;2.40;;
51792;SDS011;37850;53.178;6.376;2023-09-19T08:42:09;11.23;;;2.35;;
51792;SDS011;37850;53.178;6.376;2023-09-19T08:44:36;15.15;;;2.50;;
51792;SDS011;37850;53.178;6.376;2023-09-19T08:47:15;9.88;;;2.63;;
51792;SDS011;37850;53.178;6.376;2023-09-19T08:52:25;10.17;;;2.50;;
51792;SDS011;37850;53.178;6.376;2023-09-19T08:54:58;10.75;;;2.13;;
51792;SDS011;37850;53.178;6.376;2023-09-19T08:57:30;10.02;;;2.15;;
51792;SDS011;37850;53.178;6.376;2023-09-19T09:00:01;13.13;;;2.58;;
51792;SDS011;37850;53.178;6.376;2023-09-19T09:02:35;10.70;;;1.77;;
51792;SDS011;37850;53.178;6.376;2023-09-19T09:05:08;15.25;;;2.75;;
51792;SDS011;37850;53.178;6.376;2023-09-19T09:07:36;18.30;;;2.78;;
51792;SDS011;37850;53.178;6.376;2023-09-19T09:10:03;14.85;;;3.05;;
51792;SDS011;37850;53.178;6.376;2023-09-19T09:12:30;15.55;;;2.60;;
51792;SDS011;37850;53.178;6.376;2023-09-19T09:14:56;15.35;;;2.47;;
51792;SDS011;37850;53.178;6.376;2023-09-19T09:17:22;12.48;;;2.80;;
51792;SDS011;37850;53.178;6.376;2023-09-19T09:19:53;12.50;;;2.70;;
51792;SDS011;37850;53.178;6.376;2023-09-19T09:22:22;14.88;;;2.85;;
51792;SDS011;37850;53.178;6.376;2023-09-19T09:24:52;15.98;;;3.10;;
51792;SDS011;37850;53.178;6.376;2023-09-19T09:27:23;16.90;;;3.20;;
51792;SDS011;37850;53.178;6.376;2023-09-19T09:29:50;12.18;;;2.65;;
51792;SDS011;37850;53.178;6.376;2023-09-19T09:32:24;13.15;;;3.55;;
51792;SDS011;37850;53.178;6.376;2023-09-19T09:37:19;13.68;;;3.08;;
51792;SDS011;37850;53.178;6.376;2023-09-19T09:39:50;13.38;;;3.17;;
51792;SDS011;37850;53.178;6.376;2023-09-19T09:42:42;17.23;;;2.97;;
51792;SDS011;37850;53.178;6.376;2023-09-19T09:45:12;15.82;;;3.28;;
51792;SDS011;37850;53.178;6.376;2023-09-19T09:47:54;20.67;;;3.42;;
51792;SDS011;37850;53.178;6.376;2023-09-19T09:50:26;14.05;;;3.10;;
51792;SDS011;37850;53.178;6.376;2023-09-19T09:52:55;17.80;;;3.53;;
51792;SDS011;37850;53.178;6.376;2023-09-19T09:58:26;12.23;;;3.55;;
51792;SDS011;37850;53.178;6.376;2023-09-19T10:00:55;16.50;;;2.83;;
51792;SDS011;37850;53.178;6.376;2023-09-19T10:03:35;13.07;;;2.70;;
51792;SDS011;37850;53.178;6.376;2023-09-19T10:06:06;12.43;;;3.22;;
51792;SDS011;37850;53.178;6.376;2023-09-19T10:09:03;15.82;;;3.00;;
51792;SDS011;37850;53.178;6.376;2023-09-19T10:11:46;15.30;;;2.80;;
51792;SDS011;37850;53.178;6.376;2023-09-19T10:14:16;16.00;;;3.72;;
51792;SDS011;37850;53.178;6.376;2023-09-19T10:16:48;16.25;;;3.45;;
51792;SDS011;37850;53.178;6.376;2023-09-19T10:19:21;13.88;;;3.42;;
51792;SDS011;37850;53.178;6.376;2023-09-19T10:21:55;16.83;;;3.55;;
51792;SDS011;37850;53.178;6.376;2023-09-19T10:24:23;13.98;;;2.67;;
51792;SDS011;37850;53.178;6.376;2023-09-19T10:26:52;17.02;;;3.35;;
51792;SDS011;37850;53.178;6.376;2023-09-19T10:29:19;15.68;;;3.28;;
51792;SDS011;37850;53.178;6.376;2023-09-19T10:31:47;13.20;;;2.70;;
51792;SDS011;37850;53.178;6.376;2023-09-19T10:34:15;20.17;;;4.03;;
51792;SDS011;37850;53.178;6.376;2023-09-19T10:36:45;16.67;;;2.88;;
51792;SDS011;37850;53.178;6.376;2023-09-19T10:39:15;15.68;;;2.67;;
51792;SDS011;37850;53.178;6.376;2023-09-19T10:41:47;16.55;;;2.95;;
51792;SDS011;37850;53.178;6.376;2023-09-19T10:44:23;14.55;;;2.75;;
51792;SDS011;37850;53.178;6.376;2023-09-19T10:46:53;16.10;;;3.75;;
51792;SDS011;37850;53.178;6.376;2023-09-19T10:49:20;14.63;;;2.67;;
51792;SDS011;37850;53.178;6.376;2023-09-19T10:51:47;14.95;;;2.78;;
51792;SDS011;37850;53.178;6.376;2023-09-19T10:54:20;16.08;;;3.35;;
51792;SDS011;37850;53.178;6.376;2023-09-19T10:56:51;15.35;;;3.50;;
51792;SDS011;37850;53.178;6.376;2023-09-19T10:59:19;14.82;;;3.28;;
51792;SDS011;37850;53.178;6.376;2023-09-19T11:01:50;16.10;;;3.35;;
51792;SDS011;37850;53.178;6.376;2023-09-19T11:04:24;13.15;;;3.40;;
51792;SDS011;37850;53.178;6.376;2023-09-19T11:07:08;13.73;;;3.38;;
51792;SDS011;37850;53.178;6.376;2023-09-19T11:15:06;17.75;;;4.03;;
51792;SDS011;37850;53.178;6.376;2023-09-19T11:17:34;15.57;;;2.97;;
51792;SDS011;37850;53.178;6.376;2023-09-19T11:30:32;16.60;;;3.63;;
51792;SDS011;37850;53.178;6.376;2023-09-19T11:36:06;15.55;;;2.60;;
51792;SDS011;37850;53.178;6.376;2023-09-19T11:43:50;14.02;;;3.00;;
51792;SDS011;37850;53.178;6.376;2023-09-19T11:46:19;13.25;;;3.00;;
51792;SDS011;37850;53.178;6.376;2023-09-19T11:48:49;16.33;;;4.38;;
51792;SDS011;37850;53.178;6.376;2023-09-19T11:51:16;25.05;;;4.45;;
51792;SDS011;37850;53.178;6.376;2023-09-19T11:53:52;18.42;;;3.55;;
51792;SDS011;37850;53.178;6.376;2023-09-19T11:56:23;11.77;;;2.90;;
51792;SDS011;37850;53.178;6.376;2023-09-19T11:58:51;13.32;;;3.22;;
51792;SDS011;37850;53.178;6.376;2023-09-19T12:01:23;17.95;;;2.92;;
51792;SDS011;37850;53.178;6.376;2023-09-19T12:03:54;12.00;;;2.38;;
51792;SDS011;37850;53.178;6.376;2023-09-19T12:06:23;15.85;;;2.78;;
51792;SDS011;37850;53.178;6.376;2023-09-19T12:08:55;16.23;;;3.00;;
51792;SDS011;37850;53.178;6.376;2023-09-19T12:11:27;16.92;;;3.83;;
51792;SDS011;37850;53.178;6.376;2023-09-19T12:13:58;19.38;;;3.45;;
51792;SDS011;37850;53.178;6.376;2023-09-19T12:16:25;9.95;;;2.30;;
51792;SDS011;37850;53.178;6.376;2023-09-19T12:18:55;13.95;;;2.47;;
51792;SDS011;37850;53.178;6.376;2023-09-19T12:21:26;22.25;;;3.20;;
51792;SDS011;37850;53.178;6.376;2023-09-19T12:24:05;12.23;;;2.78;;
51792;SDS011;37850;53.178;6.376;2023-09-19T12:26:43;17.35;;;3.10;;
51792;SDS011;37850;53.178;6.376;2023-09-19T12:29:16;13.85;;;2.38;;
51792;SDS011;37850;53.178;6.376;2023-09-19T12:31:56;12.95;;;2.22;;
51792;SDS011;37850;53.178;6.376;2023-09-19T12:34:24;14.85;;;2.58;;
51792;SDS011;37850;53.178;6.376;2023-09-19T12:37:28;13.00;;;2.67;;
51792;SDS011;37850;53.178;6.376;2023-09-19T12:39:48;9.75;;;1.95;;
51792;SDS011;37850;53.178;6.376;2023-09-19T12:42:17;12.93;;;2.70;;
51792;SDS011;37850;53.178;6.376;2023-09-19T12:44:45;9.88;;;2.25;;
51792;SDS011;37850;53.178;6.376;2023-09-19T12:47:16;11.02;;;2.15;;
51792;SDS011;37850;53.178;6.376;2023-09-19T12:55:20;13.85;;;2.47;;
51792;SDS011;37850;53.178;6.376;2023-09-19T13:00:39;10.00;;;2.05;;
51792;SDS011;37850;53.178;6.376;2023-09-19T13:03:11;18.73;;;2.83;;
51792;SDS011;37850;53.178;6.376;2023-09-19T13:06:14;11.68;;;2.45;;
51792;SDS011;37850;53.178;6.376;2023-09-19T13:08:35;14.60;;;2.08;;
51792;SDS011;37850;53.178;6.376;2023-09-19T13:11:16;14.43;;;2.42;;
51792;SDS011;37850;53.178;6.376;2023-09-19T13:16:19;8.43;;;2.35;;
51792;SDS011;37850;53.178;6.376;2023-09-19T13:21:34;11.05;;;2.13;;
51792;SDS011;37850;53.178;6.376;2023-09-19T13:24:23;14.77;;;2.35;;
51792;SDS011;37850;53.178;6.376;2023-09-19T13:26:54;12.90;;;2.75;;
51792;SDS011;37850;53.178;6.376;2023-09-19T13:29:20;12.88;;;2.15;;
51792;SDS011;37850;53.178;6.376;2023-09-19T13:31:46;10.80;;;2.47;;
51792;SDS011;37850;53.178;6.376;2023-09-19T13:34:17;11.35;;;2.08;;
51792;SDS011;37850;53.178;6.376;2023-09-19T13:36:44;6.95;;;1.40;;
51792;SDS011;37850;53.178;6.376;2023-09-19T13:39:13;10.10;;;1.92;;
51792;SDS011;37850;53.178;6.376;2023-09-19T13:41:46;11.30;;;1.95;;
51792;SDS011;37850;53.178;6.376;2023-09-19T13:44:13;9.40;;;1.80;;
51792;SDS011;37850;53.178;6.376;2023-09-19T13:46:39;10.45;;;1.60;;
51792;SDS011;37850;53.178;6.376;2023-09-19T13:49:05;7.15;;;1.75;;
51792;SDS011;37850;53.178;6.376;2023-09-19T13:51:31;9.75;;;2.08;;
51792;SDS011;37850;53.178;6.376;2023-09-19T13:53:57;13.57;;;1.75;;
51792;SDS011;37850;53.178;6.376;2023-09-19T13:56:24;6.85;;;1.70;;
51792;SDS011;37850;53.178;6.376;2023-09-19T13:58:53;9.40;;;1.88;;
51792;SDS011;37850;53.178;6.376;2023-09-19T14:01:19;12.13;;;2.35;;
51792;SDS011;37850;53.178;6.376;2023-09-19T14:03:45;8.70;;;1.60;;
51792;SDS011;37850;53.178;6.376;2023-09-19T14:06:14;9.68;;;1.77;;
51792;SDS011;37850;53.178;6.376;2023-09-19T14:08:43;7.10;;;1.85;;
51792;SDS011;37850;53.178;6.376;2023-09-19T14:11:13;8.35;;;1.83;;
51792;SDS011;37850;53.178;6.376;2023-09-19T14:13:41;9.20;;;2.00;;
51792;SDS011;37850;53.178;6.376;2023-09-19T14:16:12;10.38;;;1.90;;
51792;SDS011;37850;53.178;6.376;2023-09-19T14:18:38;10.98;;;1.90;;
51792;SDS011;37850;53.178;6.376;2023-09-19T14:21:05;9.23;;;1.90;;
51792;SDS011;37850;53.178;6.376;2023-09-19T14:23:37;8.18;;;2.05;;
51792;SDS011;37850;53.178;6.376;2023-09-19T14:26:03;9.10;;;1.60;;
51792;SDS011;37850;53.178;6.376;2023-09-19T14:28:32;9.35;;;1.73;;
51792;SDS011;37850;53.178;6.376;2023-09-19T14:31:08;7.25;;;1.88;;
51792;SDS011;37850;53.178;6.376;2023-09-19T14:33:35;7.80;;;1.65;;
51792;SDS011;37850;53.178;6.376;2023-09-19T14:36:02;11.35;;;2.13;;
51792;SDS011;37850;53.178;6.376;2023-09-19T14:38:31;6.97;;;1.80;;
51792;SDS011;37850;53.178;6.376;2023-09-19T14:40:59;13.52;;;2.05;;
51792;SDS011;37850;53.178;6.376;2023-09-19T14:43:29;8.38;;;1.65;;
51792;SDS011;37850;53.178;6.376;2023-09-19T14:46:05;9.85;;;2.22;;
51792;SDS011;37850;53.178;6.376;2023-09-19T14:48:35;9.18;;;2.28;;
51792;SDS011;37850;53.178;6.376;2023-09-19T14:51:01;10.85;;;1.95;;
51792;SDS011;37850;53.178;6.376;2023-09-19T14:53:31;6.03;;;1.77;;
51792;SDS011;37850;53.178;6.376;2023-09-19T14:56:04;6.68;;;1.98;;
51792;SDS011;37850;53.178;6.376;2023-09-19T14:58:30;9.95;;;1.83;;
51792;SDS011;37850;53.178;6.376;2023-09-19T15:01:06;7.60;;;1.75;;
51792;SDS011;37850;53.178;6.376;2023-09-19T15:03:38;7.90;;;1.83;;
51792;SDS011;37850;53.178;6.376;2023-09-19T15:06:09;9.13;;;1.70;;
51792;SDS011;37850;53.178;6.376;2023-09-19T15:08:39;6.07;;;1.60;;
51792;SDS011;37850;53.178;6.376;2023-09-19T15:11:09;6.57;;;1.50;;
51792;SDS011;37850;53.178;6.376;2023-09-19T15:13:35;7.90;;;1.42;;
51792;SDS011;37850;53.178;6.376;2023-09-19T15:16:06;13.65;;;1.90;;
51792;SDS011;37850;53.178;6.376;2023-09-19T15:18:36;9.05;;;1.67;;
51792;SDS011;37850;53.178;6.376;2023-09-19T15:21:04;8.60;;;1.85;;
51792;SDS011;37850;53.178;6.376;2023-09-19T15:23:31;7.57;;;1.83;;
51792;SDS011;37850;53.178;6.376;2023-09-19T15:26:05;9.38;;;1.92;;
51792;SDS011;37850;53.178;6.376;2023-09-19T15:28:32;7.40;;;2.07;;
51792;SDS011;37850;53.178;6.376;2023-09-19T15:33:35;7.57;;;1.60;;
51792;SDS011;37850;53.178;6.376;2023-09-19T15:38:29;7.15;;;1.73;;
51792;SDS011;37850;53.178;6.376;2023-09-19T15:40:57;6.88;;;1.77;;
51792;SDS011;37850;53.178;6.376;2023-09-19T15:43:23;7.97;;;1.90;;
51792;SDS011;37850;53.178;6.376;2023-09-19T15:45:49;11.02;;;2.20;;
51792;SDS011;37850;53.178;6.376;2023-09-19T15:48:15;10.88;;;1.90;;
51792;SDS011;37850;53.178;6.376;2023-09-19T15:50:42;6.85;;;1.90;;
51792;SDS011;37850;53.178;6.376;2023-09-19T15:53:09;10.23;;;2.33;;
51792;SDS011;37850;53.178;6.376;2023-09-19T15:55:39;11.52;;;1.90;;
51792;SDS011;37850;53.178;6.376;2023-09-19T15:58:05;18.58;;;3.25;;
51792;SDS011;37850;53.178;6.376;2023-09-19T16:00:32;6.35;;;1.67;;
51792;SDS011;37850;53.178;6.376;2023-09-19T16:03:01;10.05;;;2.17;;
51792;SDS011;37850;53.178;6.376;2023-09-19T16:05:27;9.95;;;2.17;;